Time;durP1;ratioP1;P1;durP2;ratioP2;P2;SDS_P1;SDS_P2;PMS_P1;PMS_P2;Temp;Humidity;BMP_temperature;BMP_pressure;BME280_temperature;BME280_humidity;BME280_pressure;Samples;Min_cycle;Max_cycle;Signal;HPM_P1;HPM_P2
2022/08/23 00:01:11;;;;;;;6.20;3.08;;;19.40;99.90;;;;;;5035730;28;20025;-62
2022/08/23 00:03:38;;;;;;;5.88;2.85;;;19.40;99.90;;;;;;5035524;28;20068;-63
2022/08/23 00:06:04;;;;;;;2.75;2.53;;;19.30;99.90;;;;;;5035400;28;20021;-62
2022/08/23 00:08:30;;;;;;;8.98;6.60;;;19.30;99.90;;;;;;5035399;28;20053;-63
2022/08/23 00:10:57;;;;;;;5.40;4.80;;;;;;;;;;5034534;28;20032;-64
2022/08/23 00:13:23;;;;;;;4.05;3.72;;;19.30;99.90;;;;;;5034577;28;20490;-64
2022/08/23 00:15:50;;;;;;;5.75;3.05;;;19.20;99.90;;;;;;5034644;28;20544;-62
2022/08/23 00:18:17;;;;;;;3.70;3.22;;;19.20;99.90;;;;;;5016703;28;20471;-63
2022/08/23 00:20:43;;;;;;;3.17;2.78;;;19.10;99.90;;;;;;5034413;28;20014;-63
2022/08/23 00:23:09;;;;;;;4.70;3.30;;;19.10;99.90;;;;;;5016573;28;20021;-64
2022/08/23 00:25:36;;;;;;;3.42;3.17;;;19.10;99.90;;;;;;5034253;28;20125;-64
2022/08/23 00:28:02;;;;;;;3.33;3.03;;;19.30;99.90;;;;;;5034170;28;20104;-62
2022/08/23 00:30:28;;;;;;;3.50;3.00;;;19.20;99.90;;;;;;5016164;28;20025;-65
2022/08/23 00:32:54;;;;;;;5.82;3.03;;;19.10;99.90;;;;;;5017144;28;20048;-63
2022/08/23 00:35:20;;;;;;;3.38;3.00;;;19.20;99.90;;;;;;5017175;28;20498;-64
2022/08/23 00:37:46;;;;;;;2.95;2.63;;;19.10;99.90;;;;;;5035621;28;20044;-64
2022/08/23 00:40:16;;;;;;;4.07;2.90;;;19.20;99.90;;;;;;5035340;28;20104;-64
2022/08/23 00:48:41;;;;;;;4.65;3.00;;;19.10;99.90;;;;;;5035037;28;19920;-65
2022/08/23 00:51:26;;;;;;;3.38;3.08;;;19.10;99.90;;;;;;5035168;28;20030;-67
2022/08/23 00:53:56;;;;;;;3.78;3.42;;;19.10;99.90;;;;;;5035182;28;20018;-66
2022/08/23 00:56:24;;;;;;;3.05;2.80;;;19.10;99.90;;;;;;5035098;28;20045;-66
2022/08/23 00:58:50;;;;;;;3.53;3.22;;;19.10;99.90;;;;;;5034757;28;20022;-66
2022/08/23 01:01:17;;;;;;;3.92;3.15;;;19.10;99.90;;;;;;5033652;28;20079;-66
2022/08/23 01:03:45;;;;;;;3.15;2.67;;;19.10;99.90;;;;;;5034895;28;20489;-65
2022/08/23 01:06:13;;;;;;;3.70;2.63;;;19.20;99.90;;;;;;5017009;28;20025;-66
2022/08/23 01:08:51;;;;;;;4.30;2.80;;;19.20;99.90;;;;;;5017051;28;20081;-66
2022/08/23 01:11:43;;;;;;;3.20;2.90;;;19.20;99.90;;;;;;5034798;28;20056;-65
2022/08/23 01:14:30;;;;;;;5.43;3.00;;;19.00;99.90;;;;;;5035062;28;20018;-65
2022/08/23 01:17:05;;;;;;;2.40;2.28;;;19.10;99.90;;;;;;5034694;28;20025;-65
2022/08/23 01:19:59;;;;;;;2.80;2.60;;;19.10;99.90;;;;;;5034666;28;20053;-64
2022/08/23 01:22:47;;;;;;;4.50;2.67;;;19.10;99.90;;;;;;5015858;28;20038;-65
2022/08/23 01:25:16;;;;;;;3.30;2.70;;;19.20;99.90;;;;;;5016698;28;20025;-65
2022/08/23 01:27:42;;;;;;;3.92;2.92;;;19.10;99.90;;;;;;5034424;28;20481;-65
2022/08/23 01:30:11;;;;;;;5.10;2.97;;;19.10;99.90;;;;;;5034410;28;20032;-65
2022/08/23 01:32:59;;;;;;;4.85;2.78;;;19.10;99.90;;;;;;5034349;28;20037;-64
2022/08/23 01:35:36;;;;;;;3.22;2.72;;;19.10;99.90;;;;;;5016378;28;20045;-66
2022/08/23 01:38:02;;;;;;;6.30;3.17;;;19.00;99.90;;;;;;5016824;28;20378;-64
2022/08/23 01:40:28;;;;;;;3.72;3.03;;;19.00;99.90;;;;;;5033929;28;20033;-66
2022/08/23 01:42:54;;;;;;;3.50;2.75;;;19.10;99.90;;;;;;5033732;28;20025;-65
2022/08/23 01:45:20;;;;;;;4.57;2.80;;;19.00;99.90;;;;;;5034084;28;20025;-64
2022/08/23 01:47:46;;;;;;;3.70;2.60;;;19.00;99.90;;;;;;5016251;28;20030;-65
2022/08/23 01:50:13;;;;;;;6.30;2.90;;;19.00;99.90;;;;;;5033993;28;20035;-65
2022/08/23 01:52:40;;;;;;;5.40;2.67;;;19.00;99.90;;;;;;5034231;28;20480;-64
2022/08/23 01:55:07;;;;;;;2.95;2.53;;;19.00;99.90;;;;;;5016148;28;20387;-65
2022/08/23 01:57:34;;;;;;;3.78;2.88;;;19.00;99.90;;;;;;5016237;28;20482;-64
2022/08/23 02:00:01;;;;;;;3.65;2.75;;;19.00;99.90;;;;;;5033840;28;20022;-64
2022/08/23 02:02:26;;;;;;;2.80;2.58;;;19.00;99.90;;;;;;5015966;28;20029;-66
2022/08/23 02:04:52;;;;;;;4.03;2.58;;;19.00;99.90;;;;;;5033760;28;20036;-65
2022/08/23 02:07:19;;;;;;;2.40;2.30;;;19.00;99.90;;;;;;5032346;28;20045;-65
2022/08/23 02:09:45;;;;;;;2.65;2.40;;;19.00;99.90;;;;;;5015936;28;20060;-65
2022/08/23 02:12:11;;;;;;;2.70;2.50;;;19.00;99.90;;;;;;5033597;28;20033;-66
2022/08/23 02:14:40;;;;;;;2.78;2.58;;;18.90;99.90;;;;;;5033815;28;20033;-64
2022/08/23 02:17:06;;;;;;;4.13;2.97;;;18.90;99.90;;;;;;5033589;28;20478;-66
2022/08/23 02:19:33;;;;;;;4.13;2.97;;;18.90;99.90;;;;;;5033566;28;20025;-64
2022/08/23 02:21:59;;;;;;;3.28;2.83;;;18.90;99.90;;;;;;5033503;28;20041;-65
2022/08/23 02:24:25;;;;;;;3.33;3.03;;;18.90;99.90;;;;;;5033139;28;20482;-64
2022/08/23 02:26:55;;;;;;;3.10;2.90;;;18.90;99.90;;;;;;5015582;28;20038;-64
2022/08/23 02:29:22;;;;;;;4.18;3.00;;;18.80;99.90;;;;;;5015613;28;20026;-64
2022/08/23 02:31:48;;;;;;;3.08;2.63;;;;;;;;;;5033324;28;20067;-66
2022/08/23 02:34:16;;;;;;;3.72;3.38;;;;;;;;;;5031750;28;20053;-64
2022/08/23 02:36:43;;;;;;;7.03;3.05;;;18.90;99.90;;;;;;5031971;28;20473;-64
2022/08/23 02:39:09;;;;;;;4.45;3.00;;;18.80;99.90;;;;;;5033228;28;20155;-64
2022/08/23 02:41:37;;;;;;;6.07;3.50;;;18.70;99.90;;;;;;5033214;28;20454;-65
2022/08/23 02:44:04;;;;;;;4.72;3.17;;;18.70;99.90;;;;;;5033138;28;20025;-64
2022/08/23 02:46:30;;;;;;;3.38;3.17;;;18.80;99.90;;;;;;5033151;28;20134;-66
2022/08/23 02:48:55;;;;;;;6.22;3.40;;;18.80;99.90;;;;;;5033372;28;20470;-65
2022/08/23 02:51:22;;;;;;;4.63;3.08;;;18.80;99.90;;;;;;5033101;28;20040;-65
2022/08/23 02:53:47;;;;;;;4.15;3.30;;;18.70;99.90;;;;;;5015198;28;20044;-65
2022/08/23 02:56:14;;;;;;;4.50;3.10;;;18.70;99.90;;;;;;5031721;28;20021;-66
2022/08/23 02:58:40;;;;;;;3.70;3.40;;;;;;;;;;5033018;28;20025;-64
2022/08/23 03:01:17;;;;;;;4.85;4.00;;;18.70;99.90;;;;;;5031695;28;20378;-65
2022/08/23 03:03:43;;;;;;;5.68;5.07;;;18.70;99.90;;;;;;5033009;28;20029;-66
2022/08/23 03:06:09;;;;;;;5.70;4.72;;;18.70;99.90;;;;;;5015080;28;20117;-65
2022/08/23 03:08:34;;;;;;;5.20;3.95;;;18.70;99.90;;;;;;5032969;28;20033;-66
2022/08/23 03:11:00;;;;;;;3.72;3.42;;;18.70;99.90;;;;;;5032900;28;20438;-66
2022/08/23 03:13:26;;;;;;;6.18;4.00;;;18.70;99.90;;;;;;5033125;28;20025;-64
2022/08/23 03:15:52;;;;;;;4.30;3.78;;;18.70;99.90;;;;;;5031526;28;20486;-66
2022/08/23 03:18:18;;;;;;;4.25;3.60;;;18.60;99.90;;;;;;5032860;28;20063;-64
2022/08/23 03:20:44;;;;;;;5.38;3.55;;;18.60;99.90;;;;;;5032881;28;20045;-67
2022/08/23 03:23:10;;;;;;;6.35;3.90;;;18.60;99.90;;;;;;5032765;28;20029;-64
2022/08/23 03:25:37;;;;;;;7.40;3.92;;;18.60;99.90;;;;;;5032705;28;20155;-66
2022/08/23 03:28:05;;;;;;;5.63;3.80;;;18.60;99.90;;;;;;5032802;28;20029;-66
2022/08/23 03:30:32;;;;;;;6.85;3.85;;;18.60;99.90;;;;;;5032687;28;20116;-65
2022/08/23 03:32:59;;;;;;;3.60;3.30;;;18.60;99.90;;;;;;5032678;28;20021;-64
2022/08/23 03:35:25;;;;;;;3.80;3.47;;;18.60;99.90;;;;;;5014767;28;20049;-66
2022/08/23 03:37:52;;;;;;;4.00;3.67;;;18.60;99.90;;;;;;5032698;28;20037;-65
2022/08/23 03:40:19;;;;;;;5.32;3.60;;;18.70;99.90;;;;;;5032623;28;20029;-66
2022/08/23 03:42:45;;;;;;;5.78;3.97;;;18.70;99.90;;;;;;5032605;28;20029;-66
2022/08/23 03:45:11;;;;;;;4.75;3.40;;;18.70;99.90;;;;;;5032339;28;20033;-65
2022/08/23 03:47:37;;;;;;;4.78;3.58;;;18.60;99.90;;;;;;5032550;28;20041;-64
2022/08/23 03:50:03;;;;;;;3.97;3.20;;;18.70;99.90;;;;;;5032576;28;20076;-65
2022/08/23 03:52:30;;;;;;;3.90;3.50;;;18.70;99.90;;;;;;5032213;28;20112;-65
2022/08/23 03:54:55;;;;;;;5.20;4.13;;;18.70;99.90;;;;;;5032486;28;20053;-67
2022/08/23 03:57:21;;;;;;;6.35;4.10;;;18.70;99.90;;;;;;5031214;28;20064;-65
2022/08/23 03:59:47;;;;;;;4.85;3.70;;;18.60;99.90;;;;;;5032411;28;20462;-64
2022/08/23 04:02:14;;;;;;;9.60;4.45;;;18.60;99.90;;;;;;5031066;28;20025;-66
2022/08/23 04:04:41;;;;;;;7.10;4.65;;;18.60;99.90;;;;;;5033639;28;20056;-65
2022/08/23 04:07:07;;;;;;;7.43;4.53;;;18.60;99.90;;;;;;5018227;28;20034;-65
2022/08/23 04:09:33;;;;;;;6.95;4.05;;;18.60;99.90;;;;;;5035905;28;20022;-65
2022/08/23 04:11:59;;;;;;;8.65;4.70;;;18.70;99.90;;;;;;5034586;28;20036;-66
2022/08/23 04:14:25;;;;;;;4.75;4.32;;;18.60;99.90;;;;;;5035854;28;20414;-66
2022/08/23 04:16:51;;;;;;;5.72;4.47;;;18.60;99.90;;;;;;5018201;28;20034;-67
2022/08/23 04:19:17;;;;;;;6.60;4.40;;;18.50;99.90;;;;;;5017814;28;20386;-66
2022/08/23 04:21:45;;;;;;;8.98;5.03;;;;;;;;;;5035252;28;20029;-67
2022/08/23 04:24:11;;;;;;;6.45;4.90;;;18.40;99.90;;;;;;5035668;28;20029;-68
2022/08/23 04:26:37;;;;;;;6.93;5.13;;;18.30;99.90;;;;;;5017788;28;20044;-68
2022/08/23 04:29:03;;;;;;;7.82;5.18;;;18.30;99.90;;;;;;5035624;28;20048;-66
2022/08/23 04:31:32;;;;;;;8.43;5.90;;;;;;;;;;5035587;28;20147;-67
2022/08/23 04:33:58;;;;;;;6.68;5.13;;;18.20;99.90;;;;;;5035298;28;20060;-68
2022/08/23 04:36:25;;;;;;;10.63;5.63;;;18.10;99.90;;;;;;5035504;28;20157;-68
2022/08/23 04:38:51;;;;;;;9.55;6.22;;;18.10;99.90;;;;;;5035185;28;20374;-68
2022/08/23 04:44:04;;;;;;;12.63;6.47;;;18.10;99.90;;;;;;5035327;28;20032;-67
2022/08/23 04:46:30;;;;;;;8.50;5.82;;;18.10;99.90;;;;;;5034934;28;20397;-68
2022/08/23 04:48:56;;;;;;;6.68;5.90;;;18.10;99.90;;;;;;5035275;28;20025;-68
2022/08/23 04:51:22;;;;;;;6.70;5.28;;;;;;;;;;5017380;28;20492;-67
2022/08/23 04:53:48;;;;;;;8.45;5.55;;;18.20;99.90;;;;;;5034842;28;20028;-68
2022/08/23 04:56:14;;;;;;;7.90;5.60;;;18.40;99.90;;;;;;5017274;28;20030;-67
2022/08/23 04:58:40;;;;;;;9.10;6.05;;;18.40;99.90;;;;;;5035090;28;20026;-67
2022/08/23 05:01:07;;;;;;;11.15;5.47;;;18.50;99.90;;;;;;5034992;28;20037;-67
2022/08/23 05:03:34;;;;;;;6.63;5.45;;;18.50;99.90;;;;;;5034965;28;20064;-67
2022/08/23 05:06:00;;;;;;;6.63;6.03;;;18.60;99.90;;;;;;5034611;28;20068;-68
2022/08/23 05:08:26;;;;;;;7.75;5.90;;;18.60;99.90;;;;;;5033165;28;20445;-66
2022/08/23 05:10:52;;;;;;;6.85;6.18;;;18.60;99.90;;;;;;5016966;28;20037;-64
2022/08/23 05:13:19;;;;;;;10.63;6.30;;;18.60;99.90;;;;;;5034778;28;20028;-67
2022/08/23 05:15:45;;;;;;;14.35;8.15;;;;;;;;;;5033776;28;20052;-68
2022/08/23 05:18:11;;;;;;;13.13;8.18;;;;;;;;;;5016797;28;20029;-65
2022/08/23 05:20:38;;;;;;;9.40;7.00;;;;;;;;;;5016842;28;20135;-68
2022/08/23 05:23:04;;;;;;;7.10;6.40;;;18.60;99.90;;;;;;5034589;28;20075;-66
2022/08/23 05:25:48;;;;;;;9.73;6.40;;;18.80;99.90;;;;;;5034484;28;20100;-67
2022/08/23 05:28:17;;;;;;;7.28;5.97;;;18.80;99.90;;;;;;5034414;28;20034;-70
2022/08/23 05:30:44;;;;;;;8.75;6.78;;;18.90;99.90;;;;;;5034439;28;20060;-70
2022/08/23 05:33:11;;;;;;;7.70;6.93;;;18.90;99.90;;;;;;5033800;28;20382;-69
2022/08/23 05:35:39;;;;;;;11.82;6.85;;;19.00;99.90;;;;;;5030170;28;20029;-70
2022/08/23 05:38:05;;;;;;;9.40;8.45;;;19.00;99.90;;;;;;5020791;28;20386;-71
2022/08/23 05:40:30;;;;;;;21.33;15.88;;;19.10;99.90;;;;;;5016255;28;20025;-68
2022/08/23 05:42:56;;;;;;;12.40;9.70;;;19.20;99.90;;;;;;5016038;28;20516;-68
2022/08/23 05:45:22;;;;;;;10.93;7.57;;;19.30;99.90;;;;;;5033651;28;20466;-67
2022/08/23 05:47:48;;;;;;;7.90;6.80;;;19.30;99.90;;;;;;5033748;28;20088;-67
2022/08/23 05:50:14;;;;;;;7.20;6.45;;;19.30;99.90;;;;;;5016018;28;20025;-68
2022/08/23 05:52:40;;;;;;;10.52;7.05;;;19.20;99.90;;;;;;5034129;28;20029;-69
2022/08/23 05:55:06;;;;;;;14.43;9.38;;;19.20;99.90;;;;;;5015878;28;20418;-67
2022/08/23 05:57:37;;;;;;;11.18;7.15;;;19.30;99.90;;;;;;5033745;28;20032;-67
2022/08/23 06:00:10;;;;;;;11.00;7.85;;;19.30;99.90;;;;;;5033634;28;20021;-67
2022/08/23 06:02:36;;;;;;;9.00;7.65;;;19.40;99.90;;;;;;5033602;28;20390;-69
2022/08/23 06:05:03;;;;;;;8.63;7.72;;;19.40;99.90;;;;;;5033514;28;20036;-71
2022/08/23 06:07:30;;;;;;;14.45;9.27;;;;;;;;;;5033192;28;20432;-70
2022/08/23 06:09:56;;;;;;;10.70;8.25;;;19.40;99.90;;;;;;5033650;28;20447;-71
2022/08/23 06:12:22;;;;;;;9.07;8.13;;;;;;;;;;5033520;28;20025;-70
2022/08/23 06:14:48;;;;;;;11.35;8.10;;;19.70;99.90;;;;;;5015705;28;20060;-69
2022/08/23 06:17:14;;;;;;;11.00;7.25;;;19.80;99.90;;;;;;5033357;28;20064;-72
2022/08/23 06:19:40;;;;;;;8.52;6.78;;;19.90;99.90;;;;;;5033764;28;20025;-69
2022/08/23 06:22:06;;;;;;;14.15;8.18;;;19.90;99.90;;;;;;5015677;28;20025;-72
2022/08/23 06:24:32;;;;;;;8.00;7.20;;;19.90;99.90;;;;;;5031326;28;20417;-71
2022/08/23 06:26:58;;;;;;;10.35;7.97;;;19.90;99.90;;;;;;5020624;28;20121;-70
2022/08/23 06:29:24;;;;;;;9.73;8.70;;;20.00;99.90;;;;;;5031829;28;20108;-66
2022/08/23 06:31:51;;;;;;;9.65;7.03;;;19.90;99.90;;;;;;5033101;28;20030;-67
2022/08/23 06:34:31;;;;;;;9.35;8.30;;;19.90;99.90;;;;;;5033060;28;20053;-66
2022/08/23 06:36:59;;;;;;;11.48;7.80;;;19.80;99.90;;;;;;5016898;28;20041;-70
2022/08/23 06:39:27;;;;;;;8.93;8.10;;;19.80;99.90;;;;;;5030058;28;20365;-69
2022/08/23 06:41:59;;;;;;;9.48;8.60;;;19.60;99.90;;;;;;5032858;28;20068;-68
2022/08/23 06:44:26;;;;;;;13.02;9.25;;;19.70;99.90;;;;;;5015138;28;20026;-68
2022/08/23 06:46:52;;;;;;;12.85;9.43;;;19.70;99.90;;;;;;5032606;28;20090;-65
2022/08/23 06:49:18;;;;;;;15.13;9.98;;;19.80;99.90;;;;;;5032353;28;20025;-70
2022/08/23 06:51:49;;;;;;;13.90;9.13;;;19.70;99.90;;;;;;5014780;28;20389;-67
2022/08/23 06:54:18;;;;;;;8.93;8.00;;;19.70;99.90;;;;;;5032705;28;20128;-67
2022/08/23 06:56:44;;;;;;;8.98;7.60;;;19.70;99.90;;;;;;5032476;28;20489;-71
2022/08/23 06:59:11;;;;;;;12.00;8.05;;;19.80;99.90;;;;;;5032537;28;20051;-68
2022/08/23 07:01:46;;;;;;;9.40;8.35;;;19.80;99.90;;;;;;5032532;28;20075;-65
2022/08/23 07:04:16;;;;;;;15.13;9.10;;;19.90;99.90;;;;;;5014903;28;20029;-75
2022/08/23 07:06:43;;;;;;;13.30;9.23;;;19.80;99.90;;;;;;5032317;28;20124;-69
2022/08/23 07:09:08;;;;;;;9.38;8.35;;;19.80;99.90;;;;;;5032009;28;20034;-64
2022/08/23 07:11:34;;;;;;;13.27;10.15;;;19.90;99.90;;;;;;5032321;28;20374;-68
2022/08/23 07:14:07;;;;;;;9.82;8.75;;;20.00;99.90;;;;;;5032798;28;20088;-69
2022/08/23 07:16:36;;;;;;;10.32;9.32;;;20.00;99.90;;;;;;5014345;28;20079;-67
2022/08/23 07:19:03;;;;;;;9.93;8.07;;;20.00;99.90;;;;;;5014260;28;20076;-68
2022/08/23 07:21:29;;;;;;;12.82;9.00;;;;;;;;;;5014543;28;20036;-69
2022/08/23 07:23:55;;;;;;;9.75;8.52;;;20.10;99.90;;;;;;5032559;28;20486;-65
2022/08/23 07:26:22;;;;;;;11.27;9.57;;;20.20;99.90;;;;;;5032463;28;20068;-69
2022/08/23 07:28:49;;;;;;;12.88;9.65;;;20.30;99.90;;;;;;5032494;28;20025;-68
2022/08/23 07:31:29;;;;;;;11.30;8.25;;;20.50;99.90;;;;;;5014410;28;20037;-66
2022/08/23 07:33:56;;;;;;;9.15;8.13;;;;;;;;;;5030822;28;20080;-67
2022/08/23 07:36:25;;;;;;;11.85;7.53;;;;;;;;;;5027904;28;20032;-66
2022/08/23 07:38:51;;;;;;;9.52;8.10;;;;;;;;;;5032517;28;20026;-67
2022/08/23 07:41:19;;;;;;;9.50;7.82;;;;;;;;;;5036138;28;20470;-67
2022/08/23 07:43:45;;;;;;;9.80;7.63;;;;;;;;;;5036223;28;20033;-71
2022/08/23 07:46:12;;;;;;;8.80;7.70;;;;;;;;;;5036309;28;20017;-68
2022/08/23 07:48:39;;;;;;;10.48;7.30;;;;;;;;;;5036007;28;20473;-70
2022/08/23 07:51:07;;;;;;;10.57;6.13;;;;;;;;;;5018103;28;20530;-69
2022/08/23 07:53:34;;;;;;;8.43;6.70;;;;;;;;;;5035972;28;20104;-66
2022/08/23 07:56:03;;;;;;;9.25;8.30;;;;;;;;;;5034535;28;20022;-67
2022/08/23 07:58:29;;;;;;;6.97;5.88;;;;;;;;;;5035776;28;20057;-69
2022/08/23 08:00:56;;;;;;;7.05;6.13;;;;;;;;;;5035198;28;20032;-68
2022/08/23 08:03:22;;;;;;;12.48;5.47;;;;;;;;;;5017759;28;20052;-69
2022/08/23 08:05:48;;;;;;;8.02;5.18;;;20.50;99.90;;;;;;5035791;28;20040;-69
2022/08/23 08:08:13;;;;;;;12.07;5.65;;;20.50;99.90;;;;;;5035643;28;20041;-69
2022/08/23 08:10:40;;;;;;;6.70;6.00;;;20.40;99.90;;;;;;5035707;28;20021;-68
2022/08/23 08:13:07;;;;;;;8.05;5.78;;;20.40;99.90;;;;;;5035658;28;20029;-69
2022/08/23 08:15:35;;;;;;;6.40;5.68;;;20.40;99.90;;;;;;5017830;28;20026;-69
2022/08/23 08:18:01;;;;;;;10.60;6.15;;;20.40;99.90;;;;;;5035869;28;20029;-70
2022/08/23 08:20:27;;;;;;;8.35;5.05;;;20.60;99.90;;;;;;5035542;28;20030;-70
2022/08/23 08:22:54;;;;;;;7.38;5.30;;;20.60;99.90;;;;;;5035445;28;20026;-67
2022/08/23 08:25:20;;;;;;;10.52;6.15;;;20.60;99.90;;;;;;5017619;28;20737;-69
2022/08/23 08:27:47;;;;;;;5.82;5.22;;;20.60;99.90;;;;;;5035450;28;20040;-69
2022/08/23 08:30:13;;;;;;;8.57;5.55;;;20.70;99.90;;;;;;5035392;28;20053;-69
2022/08/23 08:32:39;;;;;;;8.30;6.03;;;20.80;99.90;;;;;;5017410;28;20022;-67
2022/08/23 08:35:05;;;;;;;8.63;4.97;;;20.80;99.90;;;;;;5000440;28;20124;-66
2022/08/23 08:37:31;;;;;;;6.60;4.20;;;20.80;99.90;;;;;;5015315;28;20552;-65
2022/08/23 08:39:58;;;;;;;5.47;4.40;;;20.80;99.90;;;;;;5015465;28;20053;-65
2022/08/23 08:42:45;;;;;;;6.03;4.43;;;20.70;99.90;;;;;;5015365;28;20356;-66
2022/08/23 08:45:25;;;;;;;4.90;4.07;;;20.70;99.90;;;;;;5014913;28;20025;-65
2022/08/23 08:48:08;;;;;;;8.43;4.75;;;20.60;99.90;;;;;;5011331;28;20479;-66
2022/08/23 08:50:58;;;;;;;6.57;5.25;;;20.70;99.90;;;;;;4995141;28;20026;-64
2022/08/23 08:53:29;;;;;;;6.20;5.10;;;20.70;99.90;;;;;;4995504;28;20030;-65
2022/08/23 08:56:20;;;;;;;9.52;5.00;;;20.70;99.90;;;;;;4995460;28;20035;-66
2022/08/23 08:59:07;;;;;;;5.63;5.13;;;20.70;99.90;;;;;;4985861;28;20042;-65
2022/08/23 09:01:36;;;;;;;6.78;5.28;;;20.70;99.90;;;;;;4995584;28;20523;-69
2022/08/23 09:04:03;;;;;;;8.18;5.28;;;20.80;99.90;;;;;;4995444;28;20034;-64
2022/08/23 09:06:46;;;;;;;7.03;5.30;;;20.80;99.90;;;;;;4994852;28;20026;-65
2022/08/23 09:09:56;;;;;;;9.45;5.20;;;20.80;99.90;;;;;;4995320;28;20027;-66
2022/08/23 09:12:40;;;;;;;7.72;5.97;;;20.80;99.90;;;;;;4915952;29;20063;-67
2022/08/23 09:15:19;;;;;;;12.50;6.30;;;;;;;;;;4899995;29;20032;-68
2022/08/23 09:17:56;;;;;;;6.13;5.53;;;20.80;99.90;;;;;;4952408;28;20065;-65
2022/08/23 09:20:27;;;;;;;12.60;5.40;;;20.90;99.90;;;;;;4995136;28;20034;-66
2022/08/23 09:23:16;;;;;;;8.57;7.13;;;21.00;99.90;;;;;;4995082;28;20065;-65
2022/08/23 09:26:01;;;;;;;9.30;7.60;;;21.00;99.90;;;;;;4994818;28;20026;-66
2022/08/23 09:28:34;;;;;;;7.35;6.55;;;21.10;99.90;;;;;;4994708;28;20070;-68
2022/08/23 09:31:00;;;;;;;8.70;5.85;;;21.20;99.90;;;;;;4994722;28;20058;-66
2022/08/23 09:33:39;;;;;;;8.95;7.13;;;21.20;99.90;;;;;;4975709;28;20101;-64
2022/08/23 09:36:24;;;;;;;9.43;6.90;;;21.30;99.90;;;;;;4994107;28;20459;-64
2022/08/23 09:38:59;;;;;;;7.38;6.57;;;21.30;99.90;;;;;;4993662;28;20057;-68
2022/08/23 09:41:40;;;;;;;8.32;7.53;;;21.30;99.90;;;;;;4992023;28;20037;-67
2022/08/23 09:44:15;;;;;;;8.67;7.77;;;21.30;99.90;;;;;;4993609;28;20379;-70
2022/08/23 09:46:41;;;;;;;9.35;8.27;;;21.20;99.90;;;;;;4993114;28;20041;-71
2022/08/23 09:49:28;;;;;;;8.73;7.07;;;21.30;99.90;;;;;;4994475;28;20065;-68
2022/08/23 09:51:58;;;;;;;7.35;5.47;;;21.40;99.90;;;;;;4994601;28;20034;-69
2022/08/23 09:54:33;;;;;;;11.02;6.57;;;;;;;;;;4993097;28;20034;-69
2022/08/23 09:57:09;;;;;;;8.98;8.00;;;;;;;;;;4992985;28;20030;-67
2022/08/23 09:59:42;;;;;;;8.05;7.25;;;;;;;;;;4992898;28;20101;-68
2022/08/23 10:02:29;;;;;;;8.52;6.40;;;21.70;99.90;;;;;;4993784;28;20018;-69
2022/08/23 10:05:04;;;;;;;7.70;6.32;;;21.30;99.90;;;;;;4994400;28;20022;-69
2022/08/23 10:07:40;;;;;;;6.82;5.82;;;21.30;99.90;;;;;;4994185;28;20084;-68
2022/08/23 10:10:45;;;;;;;7.82;6.68;;;21.40;99.90;;;;;;4994259;28;20038;-69
2022/08/23 10:13:12;;;;;;;8.73;7.85;;;21.50;99.90;;;;;;4994136;28;20034;-70
2022/08/23 10:16:08;;;;;;;6.65;5.60;;;21.50;99.90;;;;;;4994089;28;20066;-68
2022/08/23 10:18:56;;;;;;;7.47;5.63;;;21.30;99.90;;;;;;4992651;28;20116;-68
2022/08/23 10:21:41;;;;;;;7.90;6.57;;;21.30;99.90;;;;;;4992821;28;20057;-69
2022/08/23 10:24:15;;;;;;;6.93;6.00;;;21.30;99.90;;;;;;4994566;28;20026;-69
2022/08/23 10:29:35;;;;;;;6.28;5.78;;;21.30;99.90;;;;;;5003428;28;20034;-69
2022/08/23 10:30:12;;;;;;;7.05;6.35;;;21.30;99.90;;;;;;5013097;28;20061;-70
2022/08/23 10:32:45;;;;;;;6.28;5.68;;;21.40;99.90;;;;;;4995781;28;20032;-69
2022/08/23 10:35:30;;;;;;;9.18;6.18;;;21.50;99.90;;;;;;5013014;28;20406;-68
2022/08/23 10:38:12;;;;;;;9.38;7.22;;;21.60;99.90;;;;;;5013409;28;20026;-69
2022/08/23 10:40:59;;;;;;;7.20;5.85;;;21.60;99.90;;;;;;5012300;28;20037;-71
2022/08/23 10:43:37;;;;;;;6.50;5.28;;;;;;;;;;5013459;28;20033;-72
2022/08/23 10:46:06;;;;;;;7.22;6.03;;;;;;;;;;5013332;28;20048;-69
2022/08/23 10:48:37;;;;;;;7.38;6.53;;;;;;;;;;5013096;28;20036;-71
2022/08/23 10:51:08;;;;;;;8.70;7.80;;;;;;;;;;5013252;28;20022;-72
2022/08/23 10:53:38;;;;;;;7.68;6.28;;;;;;;;;;5012903;28;20030;-73
2022/08/23 10:56:06;;;;;;;10.15;7.03;;;;;;;;;;4995496;28;20386;-71
2022/08/23 10:58:45;;;;;;;9.57;6.40;;;22.00;99.90;;;;;;4995438;28;20498;-72
2022/08/23 11:01:34;;;;;;;6.28;5.68;;;21.90;99.90;;;;;;5012429;28;20406;-71
2022/08/23 11:04:04;;;;;;;7.78;6.85;;;21.90;99.90;;;;;;4994361;28;20041;-69
2022/08/23 11:06:36;;;;;;;8.68;6.47;;;21.80;99.90;;;;;;5013049;28;20045;-66
2022/08/23 11:09:02;;;;;;;;;;;;;;;;;;5013466;28;20037;-67
2022/08/23 11:11:34;;;;;;;10.48;6.50;;;;;;;;;;5012609;28;20435;-69
2022/08/23 11:14:01;;;;;;;8.70;6.80;;;;;;;;;;4995443;28;20026;-65
2022/08/23 11:16:29;;;;;;;7.45;6.65;;;;;;;;;;4999191;28;20022;-70
2022/08/23 11:18:56;;;;;;;7.03;6.32;;;;;;;;;;5016962;28;20022;-70
2022/08/23 11:21:30;;;;;;;8.00;5.95;;;;;;;;;;4999195;28;20022;-67
2022/08/23 11:24:01;;;;;;;6.72;6.00;;;;;;;;;;5016930;28;20026;-65
2022/08/23 11:26:27;;;;;;;8.13;5.63;;;21.80;99.90;;;;;;4999067;28;20021;-65
2022/08/23 11:29:16;;;;;;;6.50;5.75;;;21.90;99.90;;;;;;5016551;28;20037;-70
2022/08/23 11:31:42;;;;;;;8.32;6.25;;;;;;;;;;5016537;28;20370;-69
2022/08/23 11:34:10;;;;;;;5.95;5.35;;;;;;;;;;4998642;28;20079;-70
2022/08/23 11:36:37;;;;;;;8.02;4.07;;;21.90;99.90;;;;;;4998958;28;20144;-71
2022/08/23 11:39:07;;;;;;;8.07;4.22;;;22.00;99.90;;;;;;5015892;28;20474;-69
2022/08/23 11:41:53;;;;;;;4.40;3.83;;;22.20;99.90;;;;;;5016450;28;20037;-70
2022/08/23 11:44:25;;;;;;;8.70;5.40;;;22.40;99.90;;;;;;5016575;28;20053;-70
2022/08/23 11:46:58;;;;;;;7.93;5.60;;;22.40;99.90;;;;;;4998723;28;20030;-69
2022/08/23 11:49:59;;;;;;;7.05;6.32;;;22.30;99.90;;;;;;5016271;28;20033;-69
2022/08/23 11:52:56;;;;;;;9.93;6.25;;;22.10;99.90;;;;;;5015699;28;20053;-69
2022/08/23 11:55:41;;;;;;;7.57;6.88;;;;;;;;;;5016533;28;20037;-68
2022/08/23 11:58:21;;;;;;;9.70;5.60;;;;;;;;;;4998699;28;20057;-68
2022/08/23 12:00:53;;;;;;;9.13;6.43;;;;;;;;;;5016214;28;20018;-70
2022/08/23 12:03:32;;;;;;;7.60;5.40;;;;;;;;;;4998489;28;20113;-69
2022/08/23 12:06:10;;;;;;;4.97;4.47;;;;;;;;;;5015940;28;20382;-72
2022/08/23 12:08:52;;;;;;;11.60;4.65;;;;;;;;;;5015761;28;20030;-70
2022/08/23 12:11:19;;;;;;;15.23;4.95;;;;;;;;;;4998426;28;20030;-73
2022/08/23 12:13:48;;;;;;;8.93;5.20;;;;;;;;;;4998299;28;20076;-69
2022/08/23 12:16:17;;;;;;;17.10;6.00;;;;;;;;;;4997892;28;20030;-69
2022/08/23 12:18:46;;;;;;;8.03;5.17;;;;;;;;;;4998192;28;20026;-69
2022/08/23 12:21:40;;;;;;;13.13;5.68;;;;;;;;;;4998135;28;19913;-71
2022/08/23 12:24:17;;;;;;;7.20;6.00;;;21.80;99.90;;;;;;5015540;28;20558;-71
2022/08/23 12:27:01;;;;;;;15.25;5.68;;;;;;;;;;5015329;28;20042;-70
2022/08/23 12:29:35;;;;;;;11.13;4.93;;;;;;;;;;4997399;28;20075;-70
2022/08/23 12:32:17;;;;;;;10.18;4.30;;;;;;;;;;4997946;28;20105;-70
2022/08/23 12:34:48;;;;;;;7.95;4.53;;;;;;;;;;5015471;28;20081;-74
2022/08/23 12:37:17;;;;;;;6.13;4.75;;;;;;;;;;4997987;28;20030;-73
2022/08/23 12:39:49;;;;;;;9.50;4.97;;;;;;;;;;5015170;28;20172;-70
2022/08/23 12:42:32;;;;;;;5.63;5.10;;;23.00;99.90;;;;;;4997938;28;20351;-71
2022/08/23 12:45:24;;;;;;;5.90;5.00;;;23.40;99.90;;;;;;5015693;28;20537;-73
2022/08/23 12:47:58;;;;;;;8.00;5.20;;;23.00;99.90;;;;;;5011133;28;20046;-67
2022/08/23 12:50:35;;;;;;;5.97;5.38;;;22.80;99.90;;;;;;5015219;28;20025;-69
2022/08/23 12:53:08;;;;;;;5.90;5.38;;;22.50;99.90;;;;;;5015418;28;20030;-69
2022/08/23 12:55:41;;;;;;;6.95;5.47;;;22.40;99.90;;;;;;5015361;28;20112;-70
2022/08/23 12:58:08;;;;;;;7.28;5.45;;;22.40;99.90;;;;;;4997731;28;20375;-67
2022/08/23 13:00:42;;;;;;;6.13;5.53;;;22.40;99.90;;;;;;5015308;28;20048;-69
2022/08/23 13:03:27;;;;;;;6.28;5.68;;;22.50;99.90;;;;;;4997605;28;20470;-69
2022/08/23 13:06:04;;;;;;;5.97;5.15;;;22.50;99.90;;;;;;4997614;28;20034;-70
2022/08/23 13:08:32;;;;;;;7.15;5.40;;;22.50;99.90;;;;;;5015030;28;20088;-66
2022/08/23 13:10:59;;;;;;;8.73;5.43;;;22.50;99.90;;;;;;5015025;28;20030;-68
2022/08/23 13:13:26;;;;;;;6.97;6.28;;;22.30;99.90;;;;;;5012131;28;20061;-69
2022/08/23 13:15:59;;;;;;;6.72;5.32;;;22.30;99.90;;;;;;5013263;28;20026;-69
2022/08/23 13:18:38;;;;;;;6.95;5.90;;;22.20;99.90;;;;;;5013220;28;20293;-69
2022/08/23 13:21:24;;;;;;;6.20;5.60;;;22.20;99.90;;;;;;5013267;28;20040;-68
2022/08/23 13:23:52;;;;;;;5.85;5.25;;;22.30;99.90;;;;;;5013152;28;20025;-66
2022/08/23 13:26:24;;;;;;;6.60;5.95;;;;;;;;;;5013108;28;20038;-68
2022/08/23 13:29:03;;;;;;;9.07;6.28;;;;;;;;;;5014377;28;20034;-65
2022/08/23 13:31:48;;;;;;;6.35;5.75;;;;;;;;;;5014910;28;20105;-69
2022/08/23 13:34:37;;;;;;;6.40;5.80;;;22.30;99.90;;;;;;5014241;28;20045;-68